Thunder Bay — CFN6288 — position and weather

sailwx.info

Track history (hours):
 
Tides and Currents Weather Stations Pressure Air Temp Water Temp Dewpoint Dewpoint Depression Visibility Wind Speed Wind Dir Waves Ship Positions

Thunder Bay

Last reported at 2018-Jul-17 15:40 UTC. Time now 2018-Jul-19 01:50 UTC.
Position N 45°56' W 083°52'.

Length 225 m; draft 7.1 m.

Type: Cargo ship. MMSI: 316023339.

Date/timePositionNaut miles runAvg speedWind from/ knotsBaromVisibWave heightAir tempDewpointWater temp
2018-Jul-17 15:40N 45°56' W 083°52'250 9.7
2018-Jul-16 14:00N 48°18' W 088°54'277 5.9 250 / 17965.310.8 13.0
2018-Jul-14 15:15N 45°33' W 083°29'312.9
2018-Jul-14 15:00N 45°30' W 083°26'  
2018-Jul-11 04:51N 45°22' W 083°08'513.0
2018-Jul-11 04:30N 45°25' W 083°12'613.1
2018-Jul-11 04:00N 45°30' W 083°18'713.1
2018-Jul-11 03:30N 45°35' W 083°25'713.0
2018-Jul-11 02:56N 45°40' W 083°32'613.1
2018-Jul-11 02:28N 45°45' W 083°38'120 7.7
2018-Jul-10 10:53N 47°04' W 085°49'613.1
2018-Jul-10 10:26N 47°06' W 085°56'713.1
2018-Jul-10 09:54N 47°09' W 086°06'613.1
2018-Jul-10 09:29N 47°11' W 086°13'713.1
2018-Jul-10 08:58N 47°14' W 086°22'20512.5
2018-Jul-09 16:32N 46°59' W 091°23'012.7
2018-Jul-09 16:30N 46°58' W 091°23'612.6
2018-Jul-09 16:00N 46°55' W 091°31'612.5
2018-Jul-09 15:30N 46°52' W 091°39'612.6
2018-Jul-09 15:00N 46°49' W 091°47'612.5
2018-Jul-09 14:30N 46°45' W 091°54'510.7
2018-Jul-09 14:01N 46°42' W 092°01'1 1.0
2018-Jul-09 13:28N 46°42' W 092°01'0 0.0
2018-Jul-09 13:00N 46°42' W 092°01'0 0.0
2018-Jul-09 12:30N 46°42' W 092°01'0 0.0
2018-Jul-09 12:01N 46°42' W 092°01'0 0.0
2018-Jul-09 11:31N 46°42' W 092°01'0 0.0
2018-Jul-09 11:00N 46°42' W 092°01'0 0.0
2018-Jul-09 10:30N 46°42' W 092°01'0 0.0
2018-Jul-09 10:00N 46°42' W 092°01'0 0.0
2018-Jul-09 09:30N 46°42' W 092°01'0 0.0
2018-Jul-09 09:00N 46°42' W 092°01'0 0.0
2018-Jul-09 08:30N 46°42' W 092°01'0 0.0
2018-Jul-09 08:00N 46°42' W 092°01'0 0.0
2018-Jul-09 07:30N 46°42' W 092°01'0 0.0
2018-Jul-09 07:00N 46°42' W 092°01'0 0.0
2018-Jul-09 06:30N 46°42' W 092°01'0 0.0
2018-Jul-09 06:00N 46°42' W 092°01'0 0.0
2018-Jul-09 05:31N 46°42' W 092°01'0 0.0
2018-Jul-09 05:00N 46°42' W 092°01'0 0.4
2018-Jul-09 04:30N 46°42' W 092°01'2 3.2
2018-Jul-09 04:00N 46°43' W 091°59'4 9.1
2018-Jul-09 03:30N 46°45' W 091°53'612.9
2018-Jul-09 03:00N 46°48' W 091°45'713.1
2018-Jul-09 02:30N 46°51' W 091°37'34916.2
2018-Jul-08 05:00N 46°48' W 083°06'76110.5 220 / 131015.010.8 19.0
2018-Jul-08 04:18N 46°47' W 084°57'413.0
2018-Jul-08 03:59N 46°44' W 084°54'44 6.6
2018-Jul-07 21:26N 46°15' W 084°06'15 9.6
2018-Jul-07 19:51N 46°02' W 083°55'410.5
2018-Jul-07 19:28N 45°58' W 083°53'612.0
2018-Jul-07 18:58N 45°53' W 083°50'612.7
2018-Jul-07 18:30N 45°48' W 083°45'612.7
2018-Jul-07 18:00N 45°43' W 083°39'712.7
2018-Jul-07 17:27N 45°37' W 083°33'612.7
2018-Jul-07 17:00N 45°33' W 083°28'  
Track history (hours):
 
Tides and Currents Weather Stations Pressure Air Temp Water Temp Dewpoint Dewpoint Depression Visibility Wind Speed Wind Dir Waves Ship Positions

Thunder Bay

Last reported at 2018-Jul-17 15:40 UTC. Time now 2018-Jul-19 01:50 UTC.
Position N 45°56' W 083°52'.

Length 225 m; draft 7.1 m.

Type: Cargo ship. MMSI: 316023339.

Date/timePositionNaut miles runAvg speedWind from/ knotsBaromVisibWave heightAir tempDewpointWater temp
2018-Jul-17 15:40N 45°56' W 083°52'250 9.7
2018-Jul-16 14:00N 48°18' W 088°54'277 5.9 250 / 17965.310.8 13.0
2018-Jul-14 15:15N 45°33' W 083°29'312.9
2018-Jul-14 15:00N 45°30' W 083°26'  
2018-Jul-11 04:51N 45°22' W 083°08'513.0
2018-Jul-11 04:30N 45°25' W 083°12'613.1
2018-Jul-11 04:00N 45°30' W 083°18'713.1
2018-Jul-11 03:30N 45°35' W 083°25'713.0
2018-Jul-11 02:56N 45°40' W 083°32'613.1
2018-Jul-11 02:28N 45°45' W 083°38'120 7.7
2018-Jul-10 10:53N 47°04' W 085°49'613.1
2018-Jul-10 10:26N 47°06' W 085°56'713.1
2018-Jul-10 09:54N 47°09' W 086°06'613.1
2018-Jul-10 09:29N 47°11' W 086°13'713.1
2018-Jul-10 08:58N 47°14' W 086°22'20512.5
2018-Jul-09 16:32N 46°59' W 091°23'012.7
2018-Jul-09 16:30N 46°58' W 091°23'612.6
2018-Jul-09 16:00N 46°55' W 091°31'612.5
2018-Jul-09 15:30N 46°52' W 091°39'612.6
2018-Jul-09 15:00N 46°49' W 091°47'612.5
2018-Jul-09 14:30N 46°45' W 091°54'510.7
2018-Jul-09 14:01N 46°42' W 092°01'1 1.0
2018-Jul-09 13:28N 46°42' W 092°01'0 0.0
2018-Jul-09 13:00N 46°42' W 092°01'0 0.0
2018-Jul-09 12:30N 46°42' W 092°01'0 0.0
2018-Jul-09 12:01N 46°42' W 092°01'0 0.0
2018-Jul-09 11:31N 46°42' W 092°01'0 0.0
2018-Jul-09 11:00N 46°42' W 092°01'0 0.0
2018-Jul-09 10:30N 46°42' W 092°01'0 0.0
2018-Jul-09 10:00N 46°42' W 092°01'0 0.0
2018-Jul-09 09:30N 46°42' W 092°01'0 0.0
2018-Jul-09 09:00N 46°42' W 092°01'0 0.0
2018-Jul-09 08:30N 46°42' W 092°01'0 0.0
2018-Jul-09 08:00N 46°42' W 092°01'0 0.0
2018-Jul-09 07:30N 46°42' W 092°01'0 0.0
2018-Jul-09 07:00N 46°42' W 092°01'0 0.0
2018-Jul-09 06:30N 46°42' W 092°01'0 0.0
2018-Jul-09 06:00N 46°42' W 092°01'0 0.0
2018-Jul-09 05:31N 46°42' W 092°01'0 0.0
2018-Jul-09 05:00N 46°42' W 092°01'0 0.4
2018-Jul-09 04:30N 46°42' W 092°01'2 3.2
2018-Jul-09 04:00N 46°43' W 091°59'4 9.1
2018-Jul-09 03:30N 46°45' W 091°53'612.9
2018-Jul-09 03:00N 46°48' W 091°45'713.1
2018-Jul-09 02:30N 46°51' W 091°37'34916.2
2018-Jul-08 05:00N 46°48' W 083°06'76110.5 220 / 131015.010.8 19.0
2018-Jul-08 04:18N 46°47' W 084°57'413.0
2018-Jul-08 03:59N 46°44' W 084°54'44 6.6
2018-Jul-07 21:26N 46°15' W 084°06'15 9.6
2018-Jul-07 19:51N 46°02' W 083°55'410.5
2018-Jul-07 19:28N 45°58' W 083°53'612.0
2018-Jul-07 18:58N 45°53' W 083°50'612.7
2018-Jul-07 18:30N 45°48' W 083°45'612.7
2018-Jul-07 18:00N 45°43' W 083°39'712.7
2018-Jul-07 17:27N 45°37' W 083°33'612.7
2018-Jul-07 17:00N 45°33' W 083°28'  

Dump ship's entire track history